createdAt,value
2018-09-05T00:02:22.709Z,96.67
2018-09-05T00:07:26.270Z,95.53
2018-09-05T00:12:30.023Z,97.13
2018-09-05T00:17:33.670Z,98.49
2018-09-05T00:22:37.311Z,99.71
2018-09-05T00:27:41.637Z,98.13
2018-09-05T00:32:45.366Z,96.32
2018-09-05T00:37:48.935Z,97.60
2018-09-05T00:42:52.724Z,97.65
2018-09-05T00:47:56.912Z,98.18
2018-09-05T00:53:00.937Z,99.08
2018-09-05T00:58:04.439Z,100.00
2018-09-05T01:03:07.981Z,100.00
2018-09-05T01:08:11.617Z,100.00
2018-09-05T01:13:15.249Z,99.62
2018-09-05T01:18:18.790Z,100.00
2018-09-05T01:23:22.381Z,100.00
2018-09-05T01:28:26.128Z,100.00
2018-09-05T01:33:29.878Z,100.00
2018-09-05T01:38:33.357Z,100.00
2018-09-05T01:43:36.942Z,100.00
2018-09-05T01:48:40.629Z,100.00
2018-09-05T01:53:44.377Z,100.00
2018-09-05T01:58:48.096Z,100.00
2018-09-05T02:03:52.211Z,100.00
2018-09-05T02:08:55.685Z,100.00
2018-09-05T02:13:59.773Z,100.00
2018-09-05T02:19:03.261Z,100.00
2018-09-05T02:24:06.840Z,100.00
2018-09-05T02:29:10.646Z,100.00
2018-09-05T02:34:14.150Z,100.00
2018-09-05T02:39:18.046Z,99.53
2018-09-05T02:44:23.351Z,100.00
2018-09-05T02:49:26.944Z,100.00
2018-09-05T02:54:30.587Z,100.00
2018-09-05T02:59:34.085Z,100.00
2018-09-05T03:04:37.947Z,100.00
2018-09-05T03:09:41.609Z,100.00
2018-09-05T03:14:45.493Z,100.00
2018-09-05T03:19:49.022Z,100.00
2018-09-05T03:24:52.539Z,100.00
2018-09-05T03:29:56.011Z,100.00
2018-09-05T03:34:59.890Z,100.00
2018-09-05T03:40:03.621Z,100.00
2018-09-05T03:45:08.025Z,100.00
2018-09-05T03:50:11.506Z,100.00
2018-09-05T03:55:15.191Z,100.00
2018-09-05T04:00:34.273Z,100.00
2018-09-05T04:05:38.011Z,100.00
2018-09-05T04:10:42.030Z,100.00
2018-09-05T04:15:46.060Z,100.00
2018-09-05T04:20:49.621Z,100.00
2018-09-05T04:25:54.537Z,100.00
2018-09-05T04:30:58.137Z,100.00
2018-09-05T04:36:02.462Z,100.00
2018-09-05T04:41:06.038Z,100.00
2018-09-05T04:46:09.752Z,100.00
2018-09-05T04:51:13.983Z,100.00
2018-09-05T04:56:17.581Z,100.00
2018-09-05T05:01:21.638Z,100.00
2018-09-05T05:06:25.715Z,100.00
2018-09-05T05:11:29.237Z,100.00
2018-09-05T05:16:32.787Z,100.00
2018-09-05T05:21:36.283Z,100.00
2018-09-05T05:26:40.074Z,100.00
2018-09-05T05:31:43.626Z,100.00
2018-09-05T05:36:47.621Z,100.00
2018-09-05T05:41:51.147Z,100.00
2018-09-05T05:46:54.977Z,100.00
2018-09-05T05:51:58.612Z,100.00
2018-09-05T05:57:02.331Z,99.73
2018-09-05T06:02:06.433Z,99.45
2018-09-05T06:07:10.057Z,99.49
2018-09-05T06:12:16.289Z,100.00
2018-09-05T06:17:20.291Z,99.39
2018-09-05T06:22:23.798Z,99.23
2018-09-05T06:27:27.741Z,94.97
2018-09-05T06:32:31.241Z,92.28
2018-09-05T06:37:35.263Z,91.29
2018-09-05T06:42:39.205Z,88.37
2018-09-05T06:47:42.730Z,85.04
2018-09-05T06:52:46.257Z,84.59
2018-09-05T06:57:49.822Z,81.48
2018-09-05T07:02:53.346Z,77.93
2018-09-05T07:07:58.176Z,75.65
2018-09-05T07:13:01.688Z,77.48
2018-09-05T07:18:05.400Z,75.32
2018-09-05T07:23:08.993Z,72.74
2018-09-05T07:28:12.641Z,74.60
2018-09-05T07:33:16.206Z,73.20
2018-09-05T07:38:20.282Z,70.24
2018-09-05T07:43:23.748Z,70.37
2018-09-05T07:48:27.409Z,70.03
2018-09-05T07:53:30.935Z,68.39
2018-09-05T07:58:34.539Z,66.36
2018-09-05T08:03:38.197Z,64.44
2018-09-05T08:08:41.920Z,65.16
2018-09-05T08:13:45.677Z,64.06
2018-09-05T08:18:49.298Z,62.98
2018-09-05T08:23:54.041Z,60.93
2018-09-05T08:28:58.093Z,61.03
2018-09-05T08:34:02.012Z,59.92
2018-09-05T08:39:11.634Z,58.54
2018-09-05T08:44:15.335Z,58.05
2018-09-05T08:49:18.726Z,57.37
2018-09-05T08:54:22.172Z,56.55
2018-09-05T08:59:25.682Z,56.28
2018-09-05T09:04:29.734Z,54.57
2018-09-05T09:09:33.400Z,54.74
2018-09-05T09:14:36.923Z,54.30
2018-09-05T09:19:40.447Z,53.22
2018-09-05T09:24:45.205Z,50.50
2018-09-05T09:29:49.402Z,50.41
2018-09-05T09:34:52.899Z,49.35
2018-09-05T09:39:56.456Z,49.39
2018-09-05T09:45:00.692Z,47.77
2018-09-05T09:50:04.431Z,48.53
2018-09-05T09:55:08.653Z,48.06
2018-09-05T10:00:15.014Z,46.80
2018-09-05T10:05:23.959Z,46.99
2018-09-05T10:10:32.715Z,46.69
2018-09-05T10:15:41.529Z,46.68
2018-09-05T10:20:45.522Z,46.48
2018-09-05T10:25:49.896Z,45.55
2018-09-05T10:30:53.564Z,45.90
2018-09-05T10:35:57.817Z,45.67
2018-09-05T10:41:01.439Z,45.07
2018-09-05T10:46:05.160Z,45.41
2018-09-05T10:51:09.369Z,45.41
2018-09-05T10:56:12.975Z,45.46
2018-09-05T11:01:16.529Z,44.78
2018-09-05T11:06:20.128Z,44.04
2018-09-05T11:11:23.783Z,43.67
2018-09-05T11:16:27.270Z,42.89
2018-09-05T11:21:30.913Z,41.84
2018-09-05T11:26:34.353Z,41.99
2018-09-05T11:31:37.908Z,41.47
2018-09-05T11:36:41.518Z,39.71
2018-09-05T11:41:45.097Z,38.88
2018-09-05T11:46:48.749Z,41.11
2018-09-05T11:51:52.776Z,40.39
2018-09-05T11:56:56.364Z,41.58
2018-09-05T12:02:00.011Z,41.02
2018-09-05T12:07:03.592Z,39.04
2018-09-05T12:12:07.212Z,40.04
2018-09-05T12:17:11.745Z,40.28
2018-09-05T12:22:15.691Z,39.44
2018-09-05T12:27:19.205Z,39.71
2018-09-05T12:32:22.763Z,38.97
2018-09-05T12:37:26.229Z,39.72
2018-09-05T12:42:29.932Z,41.13
2018-09-05T12:47:33.617Z,40.53
2018-09-05T12:52:37.383Z,39.44
2018-09-05T12:57:40.867Z,39.13
2018-09-05T13:02:44.777Z,37.54
2018-09-05T13:07:48.253Z,37.70
2018-09-05T13:12:51.844Z,36.82
2018-09-05T13:17:55.441Z,35.98
2018-09-05T13:22:58.975Z,37.97
2018-09-05T13:28:02.474Z,37.14
2018-09-05T13:33:06.571Z,36.30
2018-09-05T13:38:10.792Z,35.52
2018-09-05T13:43:14.540Z,35.09
2018-09-05T13:48:18.041Z,34.92
2018-09-05T13:53:21.589Z,35.76
2018-09-05T13:58:26.849Z,34.11
2018-09-05T14:03:30.422Z,33.26
2018-09-05T14:08:33.952Z,34.04
2018-09-05T14:13:37.517Z,37.74
2018-09-05T14:18:41.325Z,37.50
2018-09-05T14:23:45.386Z,36.42
2018-09-05T14:28:49.550Z,37.73
2018-09-05T14:33:53.229Z,37.38
2018-09-05T14:38:56.731Z,37.46
2018-09-05T14:44:00.309Z,36.54
2018-09-05T14:49:03.966Z,36.51
2018-09-05T14:54:07.770Z,37.35
2018-09-05T14:59:11.429Z,38.38
2018-09-05T15:04:15.609Z,37.43
2018-09-05T15:09:19.095Z,38.70
2018-09-05T15:14:23.002Z,38.95
2018-09-05T15:19:26.766Z,38.38
2018-09-05T15:24:30.293Z,39.05
2018-09-05T15:29:34.092Z,41.34
2018-09-05T15:34:38.723Z,39.60
2018-09-05T15:39:42.478Z,40.00
2018-09-05T15:44:46.032Z,40.73
2018-09-05T15:49:49.561Z,41.74
2018-09-05T15:54:53.342Z,40.42
2018-09-05T15:59:57.059Z,40.53
2018-09-05T16:05:00.784Z,40.88
2018-09-05T16:10:04.548Z,42.04
2018-09-05T16:15:08.344Z,40.96
2018-09-05T16:20:11.970Z,41.50
2018-09-05T16:25:16.311Z,41.71
2018-09-05T16:30:27.961Z,42.82
2018-09-05T16:35:31.560Z,42.15
2018-09-05T16:40:35.005Z,43.13
2018-09-05T16:45:39.440Z,43.23
2018-09-05T16:50:43.024Z,44.51
2018-09-05T16:55:46.552Z,43.93
2018-09-05T17:00:50.223Z,45.05
2018-09-05T17:05:55.902Z,45.18
2018-09-05T17:11:00.413Z,45.38
2018-09-05T17:16:04.178Z,46.13
2018-09-05T17:21:07.984Z,45.65
2018-09-05T17:26:12.244Z,46.89
2018-09-05T17:31:15.995Z,46.99
2018-09-05T17:36:19.540Z,47.68
2018-09-05T17:41:23.544Z,47.83
2018-09-05T17:46:27.293Z,48.02
2018-09-05T17:51:31.380Z,48.33
2018-09-05T17:56:35.012Z,49.74
2018-09-05T18:01:38.892Z,49.79
2018-09-05T18:06:43.096Z,50.81
2018-09-05T18:11:46.744Z,50.83
2018-09-05T18:16:50.220Z,50.83
2018-09-05T18:21:53.833Z,50.78
2018-09-05T18:26:57.347Z,52.29
2018-09-05T18:32:00.857Z,52.70
2018-09-05T18:37:04.471Z,53.84
2018-09-05T18:42:07.981Z,54.05
2018-09-05T18:47:11.515Z,53.78
2018-09-05T18:52:15.171Z,54.50
2018-09-05T18:57:18.705Z,54.85
2018-09-05T19:02:23.569Z,55.73
2018-09-05T19:07:27.106Z,55.93
2018-09-05T19:12:30.649Z,55.83
2018-09-05T19:17:34.152Z,56.69
2018-09-05T19:22:38.095Z,54.50
2018-09-05T19:27:42.105Z,56.40
2018-09-05T19:32:46.924Z,55.63
2018-09-05T19:37:50.474Z,55.91
2018-09-05T19:42:54.041Z,56.10
2018-09-05T19:47:58.097Z,55.98
2018-09-05T19:53:01.633Z,56.75
2018-09-05T19:58:05.206Z,56.61
2018-09-05T20:03:08.748Z,55.62
2018-09-05T20:08:12.501Z,57.81
2018-09-05T20:13:16.076Z,57.59
2018-09-05T20:18:19.555Z,58.83
2018-09-05T20:23:23.213Z,58.23
2018-09-05T20:28:26.733Z,58.38
2018-09-05T20:33:30.271Z,58.64
2018-09-05T20:38:33.737Z,59.47
2018-09-05T20:43:38.002Z,60.01
2018-09-05T20:48:41.687Z,59.92
2018-09-05T20:53:45.198Z,59.56
2018-09-05T20:58:48.728Z,61.03
2018-09-05T21:03:52.531Z,61.26
2018-09-05T21:08:56.027Z,61.06
2018-09-05T21:13:59.570Z,61.85
2018-09-05T21:19:03.345Z,62.65
2018-09-05T21:24:07.556Z,63.08
2018-09-05T21:29:11.314Z,62.60
2018-09-05T21:34:14.861Z,63.67
2018-09-05T21:39:18.346Z,63.87
2018-09-05T21:44:21.886Z,63.73
2018-09-05T21:49:26.702Z,63.69
2018-09-05T21:54:30.216Z,64.37
2018-09-05T21:59:33.821Z,65.15
2018-09-05T22:04:37.329Z,65.22
2018-09-05T22:09:40.814Z,65.67
2018-09-05T22:14:44.439Z,65.98
2018-09-05T22:19:58.203Z,66.29
2018-09-05T22:25:01.736Z,67.14
2018-09-05T22:30:05.716Z,67.57
2018-09-05T22:35:09.963Z,67.62
2018-09-05T22:40:13.548Z,67.66
2018-09-05T22:47:32.329Z,67.88
2018-09-05T22:54:57.161Z,68.84
2018-09-05T23:02:50.777Z,70.50
2018-09-05T23:08:36.215Z,70.98
2018-09-05T23:13:58.444Z,71.42
2018-09-05T23:19:29.374Z,71.19
2018-09-05T23:24:32.892Z,70.14
2018-09-05T23:29:36.446Z,70.36
2018-09-05T23:34:40.041Z,69.96
2018-09-05T23:39:44.070Z,70.84
2018-09-05T23:44:48.179Z,71.82
2018-09-05T23:49:51.856Z,72.74
2018-09-05T23:54:55.335Z,72.22
2018-09-05T23:59:58.975Z,72.87
